sensor_id;sensor_type;location;lat;lon;timestamp;temperature;humidity
50969;DHT22;36982;51.474;7.228;2023-01-30T00:00:10;3.50;99.90
50969;DHT22;36982;51.474;7.228;2023-01-30T00:02:36;3.50;99.90
50969;DHT22;36982;51.474;7.228;2023-01-30T00:05:01;3.40;99.90
50969;DHT22;36982;51.474;7.228;2023-01-30T00:07:27;3.40;99.90
50969;DHT22;36982;51.474;7.228;2023-01-30T00:09:52;3.50;99.90
50969;DHT22;36982;51.474;7.228;2023-01-30T00:12:18;3.50;99.90
50969;DHT22;36982;51.474;7.228;2023-01-30T00:14:43;3.50;99.90
50969;DHT22;36982;51.474;7.228;2023-01-30T00:17:09;3.50;99.90
50969;DHT22;36982;51.474;7.228;2023-01-30T00:19:34;3.50;99.90
50969;DHT22;36982;51.474;7.228;2023-01-30T00:22:00;3.50;99.90
50969;DHT22;36982;51.474;7.228;2023-01-30T00:24:26;3.50;99.90
50969;DHT22;36982;51.474;7.228;2023-01-30T00:26:51;3.50;99.90
50969;DHT22;36982;51.474;7.228;2023-01-30T00:29:17;3.60;99.90
50969;DHT22;36982;51.474;7.228;2023-01-30T00:31:42;3.60;99.90
50969;DHT22;36982;51.474;7.228;2023-01-30T00:34:08;3.60;99.90
50969;DHT22;36982;51.474;7.228;2023-01-30T00:36:33;3.70;99.90
50969;DHT22;36982;51.474;7.228;2023-01-30T00:38:59;3.70;99.90
50969;DHT22;36982;51.474;7.228;2023-01-30T00:41:24;3.70;99.90
50969;DHT22;36982;51.474;7.228;2023-01-30T00:44:10;3.70;99.90
50969;DHT22;36982;51.474;7.228;2023-01-30T00:46:54;3.70;99.90
50969;DHT22;36982;51.474;7.228;2023-01-30T00:49:33;3.70;99.90
50969;DHT22;36982;51.474;7.228;2023-01-30T00:52:00;3.70;99.90
50969;DHT22;36982;51.474;7.228;2023-01-30T00:54:25;3.70;99.90
50969;DHT22;36982;51.474;7.228;2023-01-30T00:56:51;3.70;99.90
50969;DHT22;36982;51.474;7.228;2023-01-30T00:59:16;3.70;99.90
50969;DHT22;36982;51.474;7.228;2023-01-30T01:01:42;3.80;99.90
50969;DHT22;36982;51.474;7.228;2023-01-30T01:04:07;3.80;99.90
50969;DHT22;36982;51.474;7.228;2023-01-30T01:06:35;3.80;99.90
50969;DHT22;36982;51.474;7.228;2023-01-30T01:09:01;3.90;99.90
50969;DHT22;36982;51.474;7.228;2023-01-30T01:11:27;3.80;99.90
50969;DHT22;36982;51.474;7.228;2023-01-30T01:13:58;3.90;99.90
50969;DHT22;36982;51.474;7.228;2023-01-30T01:16:24;3.90;99.90
50969;DHT22;36982;51.474;7.228;2023-01-30T01:18:51;3.80;99.90
50969;DHT22;36982;51.474;7.228;2023-01-30T01:21:16;3.80;99.90
50969;DHT22;36982;51.474;7.228;2023-01-30T01:23:43;3.80;99.90
50969;DHT22;36982;51.474;7.228;2023-01-30T01:26:09;3.80;99.90
50969;DHT22;36982;51.474;7.228;2023-01-30T01:28:35;3.90;99.90
50969;DHT22;36982;51.474;7.228;2023-01-30T01:31:07;3.90;99.90
50969;DHT22;36982;51.474;7.228;2023-01-30T01:33:33;3.90;99.90
50969;DHT22;36982;51.474;7.228;2023-01-30T01:35:59;3.90;99.90
50969;DHT22;36982;51.474;7.228;2023-01-30T01:38:24;3.80;99.90
50969;DHT22;36982;51.474;7.228;2023-01-30T01:40:50;3.80;99.90
50969;DHT22;36982;51.474;7.228;2023-01-30T01:43:32;3.80;99.90
50969;DHT22;36982;51.474;7.228;2023-01-30T01:46:08;3.80;99.90
50969;DHT22;36982;51.474;7.228;2023-01-30T01:48:41;3.80;99.90
50969;DHT22;36982;51.474;7.228;2023-01-30T01:51:19;3.90;99.90
50969;DHT22;36982;51.474;7.228;2023-01-30T01:53:52;3.90;99.90
50969;DHT22;36982;51.474;7.228;2023-01-30T01:56:19;3.90;99.90
50969;DHT22;36982;51.474;7.228;2023-01-30T01:58:49;3.90;99.90
50969;DHT22;36982;51.474;7.228;2023-01-30T02:01:17;3.90;99.90
50969;DHT22;36982;51.474;7.228;2023-01-30T02:03:48;3.90;99.90
50969;DHT22;36982;51.474;7.228;2023-01-30T02:06:16;3.90;99.90
50969;DHT22;36982;51.474;7.228;2023-01-30T02:08:49;4.00;99.90
50969;DHT22;36982;51.474;7.228;2023-01-30T02:14:01;4.10;99.90
50969;DHT22;36982;51.474;7.228;2023-01-30T02:16:27;4.10;99.90
50969;DHT22;36982;51.474;7.228;2023-01-30T02:18:53;4.00;99.90
50969;DHT22;36982;51.474;7.228;2023-01-30T02:30:16;4.10;99.90
50969;DHT22;36982;51.474;7.228;2023-01-30T02:44:07;4.20;99.90
50969;DHT22;36982;51.474;7.228;2023-01-30T02:49:08;4.20;99.90
50969;DHT22;36982;51.474;7.228;2023-01-30T02:51:40;4.20;99.90
50969;DHT22;36982;51.474;7.228;2023-01-30T02:54:09;4.20;99.90
50969;DHT22;36982;51.474;7.228;2023-01-30T02:56:56;4.20;99.90
50969;DHT22;36982;51.474;7.228;2023-01-30T02:59:43;4.30;99.90
50969;DHT22;36982;51.474;7.228;2023-01-30T03:05:16;4.40;99.90
50969;DHT22;36982;51.474;7.228;2023-01-30T03:08:12;4.40;99.90
50969;DHT22;36982;51.474;7.228;2023-01-30T03:13:54;4.50;99.90
50969;DHT22;36982;51.474;7.228;2023-01-30T03:16:25;4.50;99.90
50969;DHT22;36982;51.474;7.228;2023-01-30T03:18:53;4.50;99.90
50969;DHT22;36982;51.474;7.228;2023-01-30T03:21:19;4.60;99.90
50969;DHT22;36982;51.474;7.228;2023-01-30T03:23:45;4.60;99.90
50969;DHT22;36982;51.474;7.228;2023-01-30T03:26:18;4.60;99.90
50969;DHT22;36982;51.474;7.228;2023-01-30T03:28:48;4.50;99.90
50969;DHT22;36982;51.474;7.228;2023-01-30T03:34:36;4.60;99.90
50969;DHT22;36982;51.474;7.228;2023-01-30T03:37:03;4.60;99.90
50969;DHT22;36982;51.474;7.228;2023-01-30T03:39:29;4.60;99.90
50969;DHT22;36982;51.474;7.228;2023-01-30T03:41:54;4.60;99.90
50969;DHT22;36982;51.474;7.228;2023-01-30T03:44:20;4.70;99.90
50969;DHT22;36982;51.474;7.228;2023-01-30T03:46:46;4.70;99.90
50969;DHT22;36982;51.474;7.228;2023-01-30T03:49:11;4.70;99.90
50969;DHT22;36982;51.474;7.228;2023-01-30T03:51:37;4.70;99.90
50969;DHT22;36982;51.474;7.228;2023-01-30T03:54:03;4.70;99.90
50969;DHT22;36982;51.474;7.228;2023-01-30T03:56:29;4.60;99.90
50969;DHT22;36982;51.474;7.228;2023-01-30T03:58:55;4.70;99.90
50969;DHT22;36982;51.474;7.228;2023-01-30T04:01:21;4.70;99.90
50969;DHT22;36982;51.474;7.228;2023-01-30T04:03:46;4.70;99.90
50969;DHT22;36982;51.474;7.228;2023-01-30T04:06:12;4.70;99.90
50969;DHT22;36982;51.474;7.228;2023-01-30T04:08:37;4.80;99.90
50969;DHT22;36982;51.474;7.228;2023-01-30T04:11:03;4.80;99.90
50969;DHT22;36982;51.474;7.228;2023-01-30T04:13:29;4.70;99.90
50969;DHT22;36982;51.474;7.228;2023-01-30T04:16:17;4.70;99.90
50969;DHT22;36982;51.474;7.228;2023-01-30T04:18:42;4.70;99.90
50969;DHT22;36982;51.474;7.228;2023-01-30T04:21:08;4.80;99.90
50969;DHT22;36982;51.474;7.228;2023-01-30T04:23:34;4.80;99.90
50969;DHT22;36982;51.474;7.228;2023-01-30T04:25:59;4.80;99.90
50969;DHT22;36982;51.474;7.228;2023-01-30T04:28:25;4.70;99.90
50969;DHT22;36982;51.474;7.228;2023-01-30T04:30:52;4.70;99.90
50969;DHT22;36982;51.474;7.228;2023-01-30T04:33:17;4.70;99.90
50969;DHT22;36982;51.474;7.228;2023-01-30T04:35:52;4.70;99.90
50969;DHT22;36982;51.474;7.228;2023-01-30T04:38:18;4.70;99.90
50969;DHT22;36982;51.474;7.228;2023-01-30T04:40:51;4.80;99.90
50969;DHT22;36982;51.474;7.228;2023-01-30T04:43:18;4.70;99.90
50969;DHT22;36982;51.474;7.228;2023-01-30T04:45:45;4.80;99.90
50969;DHT22;36982;51.474;7.228;2023-01-30T04:48:11;4.80;99.90
50969;DHT22;36982;51.474;7.228;2023-01-30T04:50:37;4.80;99.90
50969;DHT22;36982;51.474;7.228;2023-01-30T04:53:03;4.80;99.90
50969;DHT22;36982;51.474;7.228;2023-01-30T04:55:28;4.80;99.90
50969;DHT22;36982;51.474;7.228;2023-01-30T04:57:54;4.80;99.90
50969;DHT22;36982;51.474;7.228;2023-01-30T05:00:20;4.90;99.90
50969;DHT22;36982;51.474;7.228;2023-01-30T05:02:45;4.80;99.90
50969;DHT22;36982;51.474;7.228;2023-01-30T05:05:11;4.90;99.90
50969;DHT22;36982;51.474;7.228;2023-01-30T05:07:36;4.90;99.90
50969;DHT22;36982;51.474;7.228;2023-01-30T05:10:02;5.00;99.90
50969;DHT22;36982;51.474;7.228;2023-01-30T05:12:28;5.00;99.90
50969;DHT22;36982;51.474;7.228;2023-01-30T05:14:55;5.00;99.90
50969;DHT22;36982;51.474;7.228;2023-01-30T05:17:21;5.00;99.90
50969;DHT22;36982;51.474;7.228;2023-01-30T05:19:46;4.80;99.90
50969;DHT22;36982;51.474;7.228;2023-01-30T05:22:12;5.00;99.90
50969;DHT22;36982;51.474;7.228;2023-01-30T05:24:37;5.00;99.90
50969;DHT22;36982;51.474;7.228;2023-01-30T05:27:03;5.00;99.90
50969;DHT22;36982;51.474;7.228;2023-01-30T05:29:29;5.00;99.90
50969;DHT22;36982;51.474;7.228;2023-01-30T05:31:54;5.00;99.90
50969;DHT22;36982;51.474;7.228;2023-01-30T05:34:20;5.10;99.90
50969;DHT22;36982;51.474;7.228;2023-01-30T05:36:46;5.10;99.90
50969;DHT22;36982;51.474;7.228;2023-01-30T05:39:12;5.10;99.90
50969;DHT22;36982;51.474;7.228;2023-01-30T05:41:37;5.10;99.90
50969;DHT22;36982;51.474;7.228;2023-01-30T05:44:03;5.10;99.90
50969;DHT22;36982;51.474;7.228;2023-01-30T05:46:28;5.20;99.90
50969;DHT22;36982;51.474;7.228;2023-01-30T05:48:54;5.20;99.90
50969;DHT22;36982;51.474;7.228;2023-01-30T05:51:22;5.20;99.90
50969;DHT22;36982;51.474;7.228;2023-01-30T05:53:48;5.20;99.90
50969;DHT22;36982;51.474;7.228;2023-01-30T05:56:14;5.20;99.90
50969;DHT22;36982;51.474;7.228;2023-01-30T05:58:40;5.20;99.90
50969;DHT22;36982;51.474;7.228;2023-01-30T06:01:07;5.30;99.90
50969;DHT22;36982;51.474;7.228;2023-01-30T06:03:34;5.30;99.90
50969;DHT22;36982;51.474;7.228;2023-01-30T06:06:04;5.40;99.90
50969;DHT22;36982;51.474;7.228;2023-01-30T06:08:31;5.40;99.90
50969;DHT22;36982;51.474;7.228;2023-01-30T06:11:04;5.40;99.90
50969;DHT22;36982;51.474;7.228;2023-01-30T06:13:31;5.50;99.90
50969;DHT22;36982;51.474;7.228;2023-01-30T06:15:57;5.50;99.90
50969;DHT22;36982;51.474;7.228;2023-01-30T06:18:22;5.60;99.90
50969;DHT22;36982;51.474;7.228;2023-01-30T06:20:49;5.60;99.90
50969;DHT22;36982;51.474;7.228;2023-01-30T06:23:16;5.60;99.90
50969;DHT22;36982;51.474;7.228;2023-01-30T06:25:46;5.60;99.90
50969;DHT22;36982;51.474;7.228;2023-01-30T06:28:13;5.70;99.90
50969;DHT22;36982;51.474;7.228;2023-01-30T06:30:39;5.70;99.90
50969;DHT22;36982;51.474;7.228;2023-01-30T06:33:05;5.70;99.90
50969;DHT22;36982;51.474;7.228;2023-01-30T06:35:31;5.80;99.90
50969;DHT22;36982;51.474;7.228;2023-01-30T06:37:56;5.80;99.90
50969;DHT22;36982;51.474;7.228;2023-01-30T06:40:22;5.90;99.90
50969;DHT22;36982;51.474;7.228;2023-01-30T06:42:48;5.90;99.90
50969;DHT22;36982;51.474;7.228;2023-01-30T06:45:15;5.90;99.90
50969;DHT22;36982;51.474;7.228;2023-01-30T06:47:48;5.90;99.90
50969;DHT22;36982;51.474;7.228;2023-01-30T06:50:15;5.90;99.90
50969;DHT22;36982;51.474;7.228;2023-01-30T06:52:44;6.00;99.90
50969;DHT22;36982;51.474;7.228;2023-01-30T06:55:11;6.00;99.90
50969;DHT22;36982;51.474;7.228;2023-01-30T06:57:37;6.00;99.90
50969;DHT22;36982;51.474;7.228;2023-01-30T07:00:04;6.00;99.90
50969;DHT22;36982;51.474;7.228;2023-01-30T07:02:30;6.10;99.90
50969;DHT22;36982;51.474;7.228;2023-01-30T07:04:59;6.10;99.90
50969;DHT22;36982;51.474;7.228;2023-01-30T07:07:24;6.10;99.90
50969;DHT22;36982;51.474;7.228;2023-01-30T07:09:50;6.10;99.90
50969;DHT22;36982;51.474;7.228;2023-01-30T07:12:15;6.10;99.90
50969;DHT22;36982;51.474;7.228;2023-01-30T07:14:41;6.10;99.90
50969;DHT22;36982;51.474;7.228;2023-01-30T07:17:06;6.10;99.90
50969;DHT22;36982;51.474;7.228;2023-01-30T07:19:32;6.20;99.90
50969;DHT22;36982;51.474;7.228;2023-01-30T07:21:58;6.20;99.90
50969;DHT22;36982;51.474;7.228;2023-01-30T07:24:23;6.20;99.90
50969;DHT22;36982;51.474;7.228;2023-01-30T07:26:49;6.10;99.90
50969;DHT22;36982;51.474;7.228;2023-01-30T07:29:14;6.20;99.90
50969;DHT22;36982;51.474;7.228;2023-01-30T07:31:40;6.30;99.90
50969;DHT22;36982;51.474;7.228;2023-01-30T07:34:05;6.30;99.90
50969;DHT22;36982;51.474;7.228;2023-01-30T07:36:31;6.30;99.90
50969;DHT22;36982;51.474;7.228;2023-01-30T07:38:59;6.30;99.90
50969;DHT22;36982;51.474;7.228;2023-01-30T07:41:26;6.40;99.90
50969;DHT22;36982;51.474;7.228;2023-01-30T07:43:52;6.30;99.90
50969;DHT22;36982;51.474;7.228;2023-01-30T07:46:18;6.40;99.90
50969;DHT22;36982;51.474;7.228;2023-01-30T07:48:46;6.40;99.90
50969;DHT22;36982;51.474;7.228;2023-01-30T07:51:12;6.40;99.90
50969;DHT22;36982;51.474;7.228;2023-01-30T07:53:38;6.40;99.90
50969;DHT22;36982;51.474;7.228;2023-01-30T07:56:07;6.50;99.90
50969;DHT22;36982;51.474;7.228;2023-01-30T07:58:34;6.50;99.90
50969;DHT22;36982;51.474;7.228;2023-01-30T08:00:59;6.50;99.90
50969;DHT22;36982;51.474;7.228;2023-01-30T08:03:25;6.50;99.90
50969;DHT22;36982;51.474;7.228;2023-01-30T08:05:50;6.40;99.90
50969;DHT22;36982;51.474;7.228;2023-01-30T08:08:17;6.40;99.90
50969;DHT22;36982;51.474;7.228;2023-01-30T08:10:43;6.50;99.90
50969;DHT22;36982;51.474;7.228;2023-01-30T08:13:09;6.40;99.90
50969;DHT22;36982;51.474;7.228;2023-01-30T08:15:34;6.50;99.90
50969;DHT22;36982;51.474;7.228;2023-01-30T08:18:01;6.40;99.90
50969;DHT22;36982;51.474;7.228;2023-01-30T08:20:27;6.40;99.90
50969;DHT22;36982;51.474;7.228;2023-01-30T08:22:53;6.60;99.90
50969;DHT22;36982;51.474;7.228;2023-01-30T08:25:19;6.60;99.90
50969;DHT22;36982;51.474;7.228;2023-01-30T08:27:45;6.60;99.90
50969;DHT22;36982;51.474;7.228;2023-01-30T08:30:11;6.60;99.90
50969;DHT22;36982;51.474;7.228;2023-01-30T08:32:37;6.60;99.90
50969;DHT22;36982;51.474;7.228;2023-01-30T08:35:03;6.60;99.90
50969;DHT22;36982;51.474;7.228;2023-01-30T08:37:28;6.70;99.90
50969;DHT22;36982;51.474;7.228;2023-01-30T08:39:54;6.70;99.90
50969;DHT22;36982;51.474;7.228;2023-01-30T08:42:19;6.70;99.90
50969;DHT22;36982;51.474;7.228;2023-01-30T08:44:45;6.70;99.90
50969;DHT22;36982;51.474;7.228;2023-01-30T08:47:11;6.70;99.90
50969;DHT22;36982;51.474;7.228;2023-01-30T08:49:36;6.70;99.90
50969;DHT22;36982;51.474;7.228;2023-01-30T08:52:02;6.60;99.90
50969;DHT22;36982;51.474;7.228;2023-01-30T08:54:27;6.70;99.90
50969;DHT22;36982;51.474;7.228;2023-01-30T08:56:53;6.70;99.90
50969;DHT22;36982;51.474;7.228;2023-01-30T08:59:18;6.70;99.90
50969;DHT22;36982;51.474;7.228;2023-01-30T09:01:44;6.80;99.90
50969;DHT22;36982;51.474;7.228;2023-01-30T09:04:10;6.70;99.90
50969;DHT22;36982;51.474;7.228;2023-01-30T09:06:35;6.80;99.90
50969;DHT22;36982;51.474;7.228;2023-01-30T09:09:01;6.90;99.90
50969;DHT22;36982;51.474;7.228;2023-01-30T09:11:26;6.80;99.90
50969;DHT22;36982;51.474;7.228;2023-01-30T09:13:52;6.80;99.90
50969;DHT22;36982;51.474;7.228;2023-01-30T09:16:17;6.80;99.90
50969;DHT22;36982;51.474;7.228;2023-01-30T09:18:43;6.70;99.90
50969;DHT22;36982;51.474;7.228;2023-01-30T09:21:11;6.80;99.90
50969;DHT22;36982;51.474;7.228;2023-01-30T09:23:37;6.70;99.90
50969;DHT22;36982;51.474;7.228;2023-01-30T09:26:04;6.70;99.90
50969;DHT22;36982;51.474;7.228;2023-01-30T09:28:30;6.80;99.90
50969;DHT22;36982;51.474;7.228;2023-01-30T09:30:57;6.70;99.90
50969;DHT22;36982;51.474;7.228;2023-01-30T09:33:23;6.70;99.90
50969;DHT22;36982;51.474;7.228;2023-01-30T09:35:49;6.80;99.90
50969;DHT22;36982;51.474;7.228;2023-01-30T09:38:15;6.80;99.90
50969;DHT22;36982;51.474;7.228;2023-01-30T09:41:08;6.80;99.90
50969;DHT22;36982;51.474;7.228;2023-01-30T09:49:47;6.90;99.90
50969;DHT22;36982;51.474;7.228;2023-01-30T09:54:50;7.00;99.90
50969;DHT22;36982;51.474;7.228;2023-01-30T09:57:23;6.90;99.90
50969;DHT22;36982;51.474;7.228;2023-01-30T10:00:08;6.90;99.90
50969;DHT22;36982;51.474;7.228;2023-01-30T10:02:43;6.90;99.90
50969;DHT22;36982;51.474;7.228;2023-01-30T10:05:11;6.80;99.90
50969;DHT22;36982;51.474;7.228;2023-01-30T10:10:52;6.80;99.90
50969;DHT22;36982;51.474;7.228;2023-01-30T10:13:32;6.80;99.90
50969;DHT22;36982;51.474;7.228;2023-01-30T10:16:29;6.90;99.90
50969;DHT22;36982;51.474;7.228;2023-01-30T10:24:13;6.90;99.90
50969;DHT22;36982;51.474;7.228;2023-01-30T10:26:42;6.90;99.90
50969;DHT22;36982;51.474;7.228;2023-01-30T10:29:17;7.00;99.90
50969;DHT22;36982;51.474;7.228;2023-01-30T10:31:57;7.10;99.90
50969;DHT22;36982;51.474;7.228;2023-01-30T10:34:30;7.10;99.90
50969;DHT22;36982;51.474;7.228;2023-01-30T10:37:23;7.20;99.90
50969;DHT22;36982;51.474;7.228;2023-01-30T10:40:03;7.20;99.90
50969;DHT22;36982;51.474;7.228;2023-01-30T10:45:14;7.20;99.90
50969;DHT22;36982;51.474;7.228;2023-01-30T10:50:16;7.10;99.90
50969;DHT22;36982;51.474;7.228;2023-01-30T10:52:57;7.10;99.90
50969;DHT22;36982;51.474;7.228;2023-01-30T10:55:44;7.10;99.90
50969;DHT22;36982;51.474;7.228;2023-01-30T11:01:14;7.10;99.90
50969;DHT22;36982;51.474;7.228;2023-01-30T11:03:49;7.10;99.90
50969;DHT22;36982;51.474;7.228;2023-01-30T11:06:17;7.10;99.90
50969;DHT22;36982;51.474;7.228;2023-01-30T11:08:44;7.10;99.90
50969;DHT22;36982;51.474;7.228;2023-01-30T11:11:40;7.10;99.90
50969;DHT22;36982;51.474;7.228;2023-01-30T11:14:09;7.20;23.00
50969;DHT22;36982;51.474;7.228;2023-01-30T11:16:53;7.20;22.30
50969;DHT22;36982;51.474;7.228;2023-01-30T11:19:30;7.20;23.90
50969;DHT22;36982;51.474;7.228;2023-01-30T11:22:00;7.20;18.10
50969;DHT22;36982;51.474;7.228;2023-01-30T11:24:31;7.20;15.70
50969;DHT22;36982;51.474;7.228;2023-01-30T11:27:36;7.20;16.30
50969;DHT22;36982;51.474;7.228;2023-01-30T11:30:16;7.20;14.30
50969;DHT22;36982;51.474;7.228;2023-01-30T11:33:18;7.20;10.00
50969;DHT22;36982;51.474;7.228;2023-01-30T11:35:56;7.20;11.90
50969;DHT22;36982;51.474;7.228;2023-01-30T11:38:53;7.20;13.00
50969;DHT22;36982;51.474;7.228;2023-01-30T11:41:21;7.20;12.70
50969;DHT22;36982;51.474;7.228;2023-01-30T11:43:47;7.30;18.20
50969;DHT22;36982;51.474;7.228;2023-01-30T11:46:17;7.30;18.80
50969;DHT22;36982;51.474;7.228;2023-01-30T11:48:54;7.30;15.60
50969;DHT22;36982;51.474;7.228;2023-01-30T11:51:22;7.30;16.70
50969;DHT22;36982;51.474;7.228;2023-01-30T11:54:01;7.30;13.60
50969;DHT22;36982;51.474;7.228;2023-01-30T11:56:39;7.30;8.70
50969;DHT22;36982;51.474;7.228;2023-01-30T12:01:46;7.10;46.50
50969;DHT22;36982;51.474;7.228;2023-01-30T12:04:12;6.90;61.30
50969;DHT22;36982;51.474;7.228;2023-01-30T12:06:41;6.80;69.90
50969;DHT22;36982;51.474;7.228;2023-01-30T12:09:35;6.70;71.40
50969;DHT22;36982;51.474;7.228;2023-01-30T12:12:02;6.80;73.70
50969;DHT22;36982;51.474;7.228;2023-01-30T12:14:44;6.80;67.30
50969;DHT22;36982;51.474;7.228;2023-01-30T12:17:21;6.90;58.30
50969;DHT22;36982;51.474;7.228;2023-01-30T12:20:06;7.00;30.90
50969;DHT22;36982;51.474;7.228;2023-01-30T12:26:07;7.20;11.50
50969;DHT22;36982;51.474;7.228;2023-01-30T12:28:46;7.30;2.80
50969;DHT22;36982;51.474;7.228;2023-01-30T12:31:21;7.30;1.00
50969;DHT22;36982;51.474;7.228;2023-01-30T12:33:49;7.40;1.00
50969;DHT22;36982;51.474;7.228;2023-01-30T12:52:48;7.60;1.00
50969;DHT22;36982;51.474;7.228;2023-01-30T12:55:33;7.50;1.00
50969;DHT22;36982;51.474;7.228;2023-01-30T12:58:17;7.60;1.00
50969;DHT22;36982;51.474;7.228;2023-01-30T13:03:44;7.70;1.00
50969;DHT22;36982;51.474;7.228;2023-01-30T13:06:52;7.70;1.00
50969;DHT22;36982;51.474;7.228;2023-01-30T13:09:58;7.70;1.00
50969;DHT22;36982;51.474;7.228;2023-01-30T13:18:22;7.80;1.00
50969;DHT22;36982;51.474;7.228;2023-01-30T13:26:12;7.80;1.00
50969;DHT22;36982;51.474;7.228;2023-01-30T13:28:45;7.80;1.00
50969;DHT22;36982;51.474;7.228;2023-01-30T13:31:19;7.80;1.00
50969;DHT22;36982;51.474;7.228;2023-01-30T13:33:49;7.90;1.00
50969;DHT22;36982;51.474;7.228;2023-01-30T13:36:21;7.80;99.90
50969;DHT22;36982;51.474;7.228;2023-01-30T13:39:00;7.80;99.90
50969;DHT22;36982;51.474;7.228;2023-01-30T13:41:33;7.80;99.90
50969;DHT22;36982;51.474;7.228;2023-01-30T13:44:05;7.80;99.90
50969;DHT22;36982;51.474;7.228;2023-01-30T13:46:31;7.80;99.90
50969;DHT22;36982;51.474;7.228;2023-01-30T13:56:53;7.70;1.00
50969;DHT22;36982;51.474;7.228;2023-01-30T14:02:18;7.50;1.00
50969;DHT22;36982;51.474;7.228;2023-01-30T14:04:50;7.50;1.00
50969;DHT22;36982;51.474;7.228;2023-01-30T14:12:46;7.70;1.00
50969;DHT22;36982;51.474;7.228;2023-01-30T14:20:26;7.80;1.00
50969;DHT22;36982;51.474;7.228;2023-01-30T14:22:57;7.90;99.90
50969;DHT22;36982;51.474;7.228;2023-01-30T14:38:36;7.80;99.90
50969;DHT22;36982;51.474;7.228;2023-01-30T14:49:12;7.70;99.90
50969;DHT22;36982;51.474;7.228;2023-01-30T14:51:44;7.70;99.90
50969;DHT22;36982;51.474;7.228;2023-01-30T14:56:42;7.60;99.90
50969;DHT22;36982;51.474;7.228;2023-01-30T15:07:14;7.70;99.90
50969;DHT22;36982;51.474;7.228;2023-01-30T15:09:49;7.70;99.90
50969;DHT22;36982;51.474;7.228;2023-01-30T15:12:44;7.70;99.90
50969;DHT22;36982;51.474;7.228;2023-01-30T15:15:29;7.70;1.00
50969;DHT22;36982;51.474;7.228;2023-01-30T15:18:20;7.60;1.00
50969;DHT22;36982;51.474;7.228;2023-01-30T15:24:02;7.60;1.00
50969;DHT22;36982;51.474;7.228;2023-01-30T15:26:37;7.50;1.00
50969;DHT22;36982;51.474;7.228;2023-01-30T15:31:58;7.40;1.00
50969;DHT22;36982;51.474;7.228;2023-01-30T15:34:29;7.40;1.00
50969;DHT22;36982;51.474;7.228;2023-01-30T15:36:55;7.40;1.00
50969;DHT22;36982;51.474;7.228;2023-01-30T15:39:26;7.50;1.00
50969;DHT22;36982;51.474;7.228;2023-01-30T15:41:55;7.50;1.00
50969;DHT22;36982;51.474;7.228;2023-01-30T15:44:41;7.50;1.00
50969;DHT22;36982;51.474;7.228;2023-01-30T15:50:08;7.40;1.00
50969;DHT22;36982;51.474;7.228;2023-01-30T15:52:38;7.50;1.00
50969;DHT22;36982;51.474;7.228;2023-01-30T15:55:16;7.40;1.00
50969;DHT22;36982;51.474;7.228;2023-01-30T15:57:47;7.40;1.00
50969;DHT22;36982;51.474;7.228;2023-01-30T16:02:51;7.40;1.00
50969;DHT22;36982;51.474;7.228;2023-01-30T16:05:19;7.40;1.00
50969;DHT22;36982;51.474;7.228;2023-01-30T16:07:47;7.40;1.00
50969;DHT22;36982;51.474;7.228;2023-01-30T16:10:18;7.40;1.00
50969;DHT22;36982;51.474;7.228;2023-01-30T16:12:46;7.40;1.00
50969;DHT22;36982;51.474;7.228;2023-01-30T16:17:40;7.40;1.00
50969;DHT22;36982;51.474;7.228;2023-01-30T16:20:12;7.40;1.00
50969;DHT22;36982;51.474;7.228;2023-01-30T16:22:42;7.40;1.00
50969;DHT22;36982;51.474;7.228;2023-01-30T16:25:27;7.40;1.00
50969;DHT22;36982;51.474;7.228;2023-01-30T16:27:58;7.40;1.00
50969;DHT22;36982;51.474;7.228;2023-01-30T16:30:26;7.40;1.00
50969;DHT22;36982;51.474;7.228;2023-01-30T16:32:54;7.40;1.00
50969;DHT22;36982;51.474;7.228;2023-01-30T16:37:49;7.40;1.00
50969;DHT22;36982;51.474;7.228;2023-01-30T16:40:17;7.40;1.00
50969;DHT22;36982;51.474;7.228;2023-01-30T16:43:17;7.40;1.00
50969;DHT22;36982;51.474;7.228;2023-01-30T16:51:08;7.40;1.00
50969;DHT22;36982;51.474;7.228;2023-01-30T16:53:43;7.40;1.00
50969;DHT22;36982;51.474;7.228;2023-01-30T16:56:14;7.40;1.00
50969;DHT22;36982;51.474;7.228;2023-01-30T16:58:44;7.40;1.00
50969;DHT22;36982;51.474;7.228;2023-01-30T17:01:10;7.40;1.00
50969;DHT22;36982;51.474;7.228;2023-01-30T17:03:38;7.40;1.00
50969;DHT22;36982;51.474;7.228;2023-01-30T17:06:07;7.40;1.00
50969;DHT22;36982;51.474;7.228;2023-01-30T17:08:46;7.40;1.00
50969;DHT22;36982;51.474;7.228;2023-01-30T17:11:37;7.40;1.00
50969;DHT22;36982;51.474;7.228;2023-01-30T17:16:35;7.40;1.00
50969;DHT22;36982;51.474;7.228;2023-01-30T17:19:01;7.40;1.00
50969;DHT22;36982;51.474;7.228;2023-01-30T17:21:30;7.30;1.00
50969;DHT22;36982;51.474;7.228;2023-01-30T17:24:01;7.30;1.00
50969;DHT22;36982;51.474;7.228;2023-01-30T17:26:27;7.30;1.00
50969;DHT22;36982;51.474;7.228;2023-01-30T17:28:54;7.30;1.00
50969;DHT22;36982;51.474;7.228;2023-01-30T17:31:19;7.30;1.00
50969;DHT22;36982;51.474;7.228;2023-01-30T17:33:45;7.20;1.00
50969;DHT22;36982;51.474;7.228;2023-01-30T17:36:28;7.20;1.00
50969;DHT22;36982;51.474;7.228;2023-01-30T17:38:55;7.10;1.00
50969;DHT22;36982;51.474;7.228;2023-01-30T17:41:24;7.20;1.00
50969;DHT22;36982;51.474;7.228;2023-01-30T17:43:50;7.20;1.00
50969;DHT22;36982;51.474;7.228;2023-01-30T17:46:21;7.20;1.00
50969;DHT22;36982;51.474;7.228;2023-01-30T17:48:47;7.10;1.00
50969;DHT22;36982;51.474;7.228;2023-01-30T17:51:12;7.10;1.00
50969;DHT22;36982;51.474;7.228;2023-01-30T17:53:39;7.10;1.00
50969;DHT22;36982;51.474;7.228;2023-01-30T17:56:24;7.10;1.00
50969;DHT22;36982;51.474;7.228;2023-01-30T17:58:51;7.00;1.00
50969;DHT22;36982;51.474;7.228;2023-01-30T18:01:17;7.00;1.00
50969;DHT22;36982;51.474;7.228;2023-01-30T18:03:44;7.10;1.00
50969;DHT22;36982;51.474;7.228;2023-01-30T18:06:13;7.00;1.00
50969;DHT22;36982;51.474;7.228;2023-01-30T18:08:39;6.90;1.00
50969;DHT22;36982;51.474;7.228;2023-01-30T18:11:06;6.90;1.00
50969;DHT22;36982;51.474;7.228;2023-01-30T18:13:39;7.00;1.00
50969;DHT22;36982;51.474;7.228;2023-01-30T18:16:05;6.90;1.60
50969;DHT22;36982;51.474;7.228;2023-01-30T18:18:31;6.80;4.30
50969;DHT22;36982;51.474;7.228;2023-01-30T18:20:57;6.70;7.50
50969;DHT22;36982;51.474;7.228;2023-01-30T18:23:22;6.70;12.00
50969;DHT22;36982;51.474;7.228;2023-01-30T18:25:48;6.60;14.30
50969;DHT22;36982;51.474;7.228;2023-01-30T18:28:13;6.60;13.00
50969;DHT22;36982;51.474;7.228;2023-01-30T18:30:39;6.60;16.00
50969;DHT22;36982;51.474;7.228;2023-01-30T18:33:05;6.50;13.30
50969;DHT22;36982;51.474;7.228;2023-01-30T18:35:30;6.60;14.10
50969;DHT22;36982;51.474;7.228;2023-01-30T18:37:56;6.50;15.70
50969;DHT22;36982;51.474;7.228;2023-01-30T18:40:22;6.60;12.50
50969;DHT22;36982;51.474;7.228;2023-01-30T18:42:48;6.60;9.10
50969;DHT22;36982;51.474;7.228;2023-01-30T18:45:13;6.60;9.80
50969;DHT22;36982;51.474;7.228;2023-01-30T18:47:39;6.60;6.10
50969;DHT22;36982;51.474;7.228;2023-01-30T18:50:05;6.60;10.70
50969;DHT22;36982;51.474;7.228;2023-01-30T18:52:30;6.50;13.90
50969;DHT22;36982;51.474;7.228;2023-01-30T18:54:56;6.60;17.20
50969;DHT22;36982;51.474;7.228;2023-01-30T18:57:21;6.60;18.00
50969;DHT22;36982;51.474;7.228;2023-01-30T18:59:47;6.50;16.20